createdAt,value
2023-01-26T00:01:09.976Z,40.30
2023-01-26T00:03:34.605Z,41.25
2023-01-26T00:05:59.049Z,43.95
2023-01-26T00:08:24.950Z,43.83
2023-01-26T00:10:51.529Z,37.75
2023-01-26T00:13:15.997Z,44.40
2023-01-26T00:15:40.493Z,48.10
2023-01-26T00:18:05.269Z,39.53
2023-01-26T00:20:30.972Z,40.17
2023-01-26T00:22:55.681Z,43.50
2023-01-26T00:25:22.066Z,46.42
2023-01-26T00:27:46.704Z,44.45
2023-01-26T00:30:12.450Z,42.53
2023-01-26T00:32:37.927Z,41.40
2023-01-26T00:35:02.265Z,42.50
2023-01-26T00:37:27.683Z,39.28
2023-01-26T00:39:52.150Z,42.38
2023-01-26T00:42:18.130Z,38.75
2023-01-26T00:44:43.763Z,38.13
2023-01-26T00:47:10.033Z,44.13
2023-01-26T00:49:34.727Z,42.75
2023-01-26T00:51:59.478Z,50.65
2023-01-26T00:54:23.882Z,43.83
2023-01-26T00:56:48.512Z,42.95
2023-01-26T00:59:14.923Z,45.47
2023-01-26T01:01:43.159Z,47.55
2023-01-26T01:04:07.930Z,50.80
2023-01-26T01:06:32.694Z,59.60
2023-01-26T01:08:57.206Z,57.13
2023-01-26T01:11:21.789Z,55.60
2023-01-26T01:13:48.103Z,59.55
2023-01-26T01:16:16.585Z,49.70
2023-01-26T01:18:41.823Z,53.00
2023-01-26T01:21:08.697Z,55.50
2023-01-26T01:23:33.212Z,54.80
2023-01-26T01:26:00.351Z,63.78
2023-01-26T01:28:25.122Z,46.60
2023-01-26T01:30:49.861Z,47.55
2023-01-26T01:33:15.705Z,49.13
2023-01-26T01:35:40.391Z,49.67
2023-01-26T01:38:05.013Z,51.60
2023-01-26T01:40:29.561Z,55.10
2023-01-26T01:42:54.150Z,52.45
2023-01-26T01:45:41.047Z,54.10
2023-01-26T01:48:08.074Z,46.60
2023-01-26T01:50:38.334Z,51.35
2023-01-26T01:53:03.338Z,57.08
2023-01-26T01:55:47.796Z,53.63
2023-01-26T01:58:13.531Z,57.10
2023-01-26T02:00:37.916Z,57.63
2023-01-26T02:03:15.241Z,58.22
2023-01-26T02:05:48.855Z,51.35
2023-01-26T02:08:15.935Z,52.55
2023-01-26T02:10:41.284Z,52.47
2023-01-26T02:13:06.790Z,48.50
2023-01-26T02:15:32.325Z,58.17
2023-01-26T02:18:00.655Z,57.65
2023-01-26T02:20:34.259Z,59.25
2023-01-26T02:23:08.268Z,54.90
2023-01-26T02:25:39.412Z,53.03
2023-01-26T02:28:05.845Z,54.63
2023-01-26T02:30:30.685Z,63.50
2023-01-26T02:32:55.836Z,58.80
2023-01-26T02:35:20.411Z,53.50
2023-01-26T02:37:45.032Z,51.78
2023-01-26T02:40:15.394Z,54.67
2023-01-26T02:42:38.995Z,58.60
2023-01-26T02:45:05.238Z,60.03
2023-01-26T02:47:29.741Z,52.63
2023-01-26T02:49:53.342Z,56.90
2023-01-26T02:52:20.857Z,59.38
2023-01-26T02:55:09.179Z,68.43
2023-01-26T02:57:35.230Z,55.53
2023-01-26T02:59:59.867Z,60.90
2023-01-26T03:02:26.090Z,67.13
2023-01-26T03:04:50.549Z,49.83
2023-01-26T03:07:15.210Z,63.97
2023-01-26T03:09:40.074Z,62.03
2023-01-26T03:12:06.763Z,65.10
2023-01-26T03:14:31.299Z,60.25
2023-01-26T03:16:55.812Z,65.93
2023-01-26T03:19:39.154Z,63.67
2023-01-26T03:22:20.402Z,90.30
2023-01-26T03:25:02.672Z,81.50
2023-01-26T03:27:28.484Z,72.65
2023-01-26T03:29:59.577Z,91.40
2023-01-26T03:32:24.304Z,63.92
2023-01-26T03:34:51.207Z,78.80
2023-01-26T03:37:16.470Z,67.13
2023-01-26T03:40:04.863Z,71.68
2023-01-26T03:42:48.335Z,80.78
2023-01-26T03:45:30.696Z,74.30
2023-01-26T03:48:22.883Z,72.80
2023-01-26T03:51:06.603Z,62.90
2023-01-26T03:53:48.352Z,63.65
2023-01-26T03:56:21.795Z,66.18
2023-01-26T03:58:48.767Z,67.90
2023-01-26T04:01:20.243Z,67.13
2023-01-26T04:04:07.118Z,58.80
2023-01-26T04:06:50.625Z,60.38
2023-01-26T04:09:16.361Z,56.67
2023-01-26T04:11:40.955Z,59.95
2023-01-26T04:14:22.916Z,56.70
2023-01-26T04:17:05.237Z,65.40
2023-01-26T04:19:47.357Z,62.80
2023-01-26T04:22:15.065Z,59.47
2023-01-26T04:24:41.276Z,63.63
2023-01-26T04:27:06.335Z,64.35
2023-01-26T04:29:34.958Z,61.17
2023-01-26T04:31:59.581Z,57.22
2023-01-26T04:34:25.283Z,57.50
2023-01-26T04:36:50.314Z,51.72
2023-01-26T04:39:17.953Z,60.75
2023-01-26T04:41:45.833Z,63.78
2023-01-26T04:44:13.188Z,59.90
2023-01-26T04:46:38.002Z,57.78
2023-01-26T04:49:03.704Z,65.70
2023-01-26T04:51:28.674Z,54.78
2023-01-26T04:53:53.717Z,63.38
2023-01-26T04:56:26.097Z,59.70
2023-01-26T04:58:51.475Z,61.50
2023-01-26T05:01:16.136Z,57.88
2023-01-26T05:03:41.031Z,60.33
2023-01-26T05:06:05.674Z,61.78
2023-01-26T05:08:31.377Z,69.80
2023-01-26T05:10:55.980Z,66.45
2023-01-26T05:13:25.114Z,62.38
2023-01-26T05:16:09.036Z,62.72
2023-01-26T05:18:46.131Z,70.47
2023-01-26T05:21:38.043Z,57.38
2023-01-26T05:24:03.425Z,58.90
2023-01-26T05:27:17.366Z,119.70
2023-01-26T05:29:45.300Z,101.45
2023-01-26T05:32:09.756Z,89.22
2023-01-26T05:34:34.774Z,69.57
2023-01-26T05:37:01.326Z,71.20
2023-01-26T05:39:27.850Z,62.88
2023-01-26T05:41:54.235Z,59.90
2023-01-26T05:44:39.158Z,54.88
2023-01-26T05:47:15.287Z,57.42
2023-01-26T05:49:43.044Z,66.45
2023-01-26T05:52:14.284Z,74.13
2023-01-26T05:54:38.980Z,61.20
2023-01-26T05:57:03.653Z,68.60
2023-01-26T05:59:30.269Z,61.97
2023-01-26T06:01:54.755Z,65.35
2023-01-26T06:04:21.030Z,57.85
2023-01-26T06:06:50.698Z,61.08
2023-01-26T06:09:20.224Z,64.88
2023-01-26T06:12:05.360Z,64.47
2023-01-26T06:14:45.095Z,67.43
2023-01-26T06:17:12.124Z,62.63
2023-01-26T06:19:39.196Z,66.03
2023-01-26T06:22:04.250Z,69.35
2023-01-26T06:24:29.659Z,61.03
2023-01-26T06:26:54.336Z,79.90
2023-01-26T06:29:19.021Z,95.47
2023-01-26T06:31:44.622Z,67.75
2023-01-26T06:34:10.888Z,62.83
2023-01-26T06:36:40.880Z,71.97
2023-01-26T06:39:09.259Z,70.10
2023-01-26T06:41:34.389Z,82.72
2023-01-26T06:43:59.057Z,74.00
2023-01-26T06:46:23.806Z,79.05
2023-01-26T06:48:51.166Z,62.17
2023-01-26T06:51:57.433Z,57.42
2023-01-26T06:54:38.217Z,63.03
2023-01-26T06:57:25.790Z,65.25
2023-01-26T07:00:32.521Z,61.13
2023-01-26T07:03:12.106Z,68.90
2023-01-26T07:05:36.776Z,69.07
2023-01-26T07:08:08.840Z,70.40
2023-01-26T07:10:36.480Z,62.63
2023-01-26T07:13:01.276Z,73.82
2023-01-26T07:15:26.025Z,65.55
2023-01-26T07:17:50.734Z,63.28
2023-01-26T07:20:15.933Z,61.67
2023-01-26T07:22:40.506Z,80.72
2023-01-26T07:25:05.251Z,64.32
2023-01-26T07:27:32.839Z,59.20
2023-01-26T07:29:57.712Z,66.63
2023-01-26T07:32:22.503Z,43.42
2023-01-26T07:34:48.467Z,68.18
2023-01-26T07:37:13.066Z,64.82
2023-01-26T07:39:37.509Z,63.85
2023-01-26T07:42:02.964Z,77.15
2023-01-26T07:44:51.801Z,54.25
2023-01-26T07:47:18.373Z,50.28
2023-01-26T07:49:43.000Z,62.30
2023-01-26T07:52:08.879Z,56.30
2023-01-26T07:54:33.508Z,60.92
2023-01-26T07:56:59.445Z,68.93
2023-01-26T07:59:24.479Z,47.65
2023-01-26T08:01:52.549Z,57.70
2023-01-26T08:04:17.638Z,60.83
2023-01-26T08:06:42.714Z,74.70
2023-01-26T08:09:08.095Z,61.83
2023-01-26T08:11:33.267Z,63.10
2023-01-26T08:13:59.194Z,69.68
2023-01-26T08:16:24.205Z,61.30
2023-01-26T08:18:50.525Z,56.88
2023-01-26T08:21:17.365Z,66.55
2023-01-26T08:23:42.011Z,78.68
2023-01-26T08:26:09.395Z,73.68
2023-01-26T08:28:34.444Z,70.78
2023-01-26T08:31:04.403Z,74.35
2023-01-26T08:33:29.628Z,78.25
2023-01-26T08:35:55.533Z,60.78
2023-01-26T08:38:20.079Z,69.10
2023-01-26T08:40:45.159Z,77.30
2023-01-26T08:43:09.768Z,57.50
2023-01-26T08:45:34.527Z,72.53
2023-01-26T08:48:02.521Z,67.72
2023-01-26T08:50:30.741Z,64.75
2023-01-26T08:53:05.051Z,69.97
2023-01-26T08:55:29.830Z,76.70
2023-01-26T08:57:56.372Z,59.38
2023-01-26T09:00:22.072Z,58.70
2023-01-26T09:02:46.944Z,55.10
2023-01-26T09:05:15.147Z,59.90
2023-01-26T09:07:40.010Z,69.30
2023-01-26T09:10:07.831Z,66.72
2023-01-26T09:12:32.693Z,44.42
2023-01-26T09:14:57.643Z,79.40
2023-01-26T09:17:22.574Z,76.75
2023-01-26T09:19:47.216Z,68.38
2023-01-26T09:22:11.783Z,74.93
2023-01-26T09:24:36.995Z,66.78
2023-01-26T09:27:02.979Z,71.65
2023-01-26T09:29:27.577Z,73.05
2023-01-26T09:31:58.600Z,72.13
2023-01-26T09:34:25.377Z,87.60
2023-01-26T09:36:51.168Z,72.47
2023-01-26T09:39:20.266Z,69.28
2023-01-26T09:41:57.034Z,78.30
2023-01-26T09:44:26.774Z,61.88
2023-01-26T09:47:01.631Z,65.68
2023-01-26T09:49:30.794Z,66.13
2023-01-26T09:52:00.681Z,73.77
2023-01-26T09:54:30.061Z,65.95
2023-01-26T09:56:56.232Z,64.78
2023-01-26T09:59:32.116Z,75.47
2023-01-26T10:02:03.420Z,70.88
2023-01-26T10:04:36.852Z,66.15
2023-01-26T10:07:05.590Z,71.05
2023-01-26T10:10:03.825Z,48.33
2023-01-26T10:12:32.577Z,61.65
2023-01-26T10:15:04.377Z,68.53
2023-01-26T10:17:35.026Z,79.75
2023-01-26T10:20:04.191Z,77.10
2023-01-26T10:22:37.664Z,84.50
2023-01-26T10:25:02.416Z,82.93
2023-01-26T10:27:29.627Z,79.78
2023-01-26T10:29:54.801Z,58.58
2023-01-26T10:32:21.172Z,77.18
2023-01-26T10:34:53.595Z,85.63
2023-01-26T10:37:23.471Z,77.55
2023-01-26T10:40:02.478Z,79.35
2023-01-26T10:42:30.633Z,68.05
2023-01-26T10:44:58.643Z,70.82
2023-01-26T10:47:26.125Z,80.38
2023-01-26T10:49:50.759Z,75.80
2023-01-26T10:52:21.892Z,75.63
2023-01-26T10:54:47.109Z,78.70
2023-01-26T10:57:24.308Z,71.03
2023-01-26T10:59:56.507Z,90.32
2023-01-26T11:02:28.931Z,86.20
2023-01-26T11:05:06.472Z,86.10
2023-01-26T11:07:36.145Z,90.95
2023-01-26T11:10:22.815Z,90.43
2023-01-26T11:12:48.250Z,100.43
2023-01-26T11:15:19.667Z,82.90
2023-01-26T11:17:52.710Z,95.05
2023-01-26T11:20:43.794Z,88.53
2023-01-26T11:23:17.374Z,89.00
2023-01-26T11:25:56.982Z,105.85
2023-01-26T11:28:37.097Z,85.43
2023-01-26T11:31:18.036Z,95.70
2023-01-26T11:33:53.857Z,123.80
2023-01-26T11:36:30.139Z,93.90
2023-01-26T11:39:04.404Z,95.38
2023-01-26T11:41:41.970Z,86.40
2023-01-26T11:44:31.848Z,75.72
2023-01-26T11:47:41.351Z,61.60
2023-01-26T11:50:20.688Z,97.53
2023-01-26T11:52:57.139Z,100.80
2023-01-26T11:55:32.623Z,92.80
2023-01-26T11:58:14.923Z,104.13
2023-01-26T12:00:42.861Z,89.93
2023-01-26T12:03:13.102Z,83.82
2023-01-26T12:05:45.985Z,99.97
2023-01-26T12:08:16.557Z,99.10
2023-01-26T12:10:45.638Z,95.97
2023-01-26T12:13:15.813Z,91.30
2023-01-26T12:15:44.532Z,101.47
2023-01-26T12:18:21.655Z,100.72
2023-01-26T12:20:52.675Z,98.05
2023-01-26T12:23:28.775Z,98.63
2023-01-26T12:25:59.207Z,95.35
2023-01-26T12:28:29.203Z,81.07
2023-01-26T12:33:21.449Z,93.35
2023-01-26T12:36:00.544Z,106.88
2023-01-26T12:38:33.369Z,87.28
2023-01-26T12:41:07.303Z,108.38
2023-01-26T12:43:44.775Z,115.50
2023-01-26T12:46:10.563Z,94.93
2023-01-26T12:48:43.119Z,104.68
2023-01-26T12:51:12.799Z,108.97
2023-01-26T12:53:45.333Z,110.90
2023-01-26T12:56:16.381Z,105.35
2023-01-26T12:58:45.494Z,105.15
2023-01-26T13:01:13.028Z,88.38
2023-01-26T13:03:42.046Z,112.15
2023-01-26T13:06:23.293Z,91.38
2023-01-26T13:09:01.578Z,97.95
2023-01-26T13:11:44.938Z,97.20
2023-01-26T13:14:28.617Z,95.75
2023-01-26T13:16:53.343Z,89.53
2023-01-26T13:19:52.639Z,69.95
2023-01-26T13:22:43.001Z,82.45
2023-01-26T13:25:17.786Z,97.57
2023-01-26T13:27:47.120Z,91.30
2023-01-26T13:30:46.247Z,94.10
2023-01-26T13:33:23.205Z,60.78
2023-01-26T13:35:48.794Z,94.18
2023-01-26T13:38:23.956Z,92.20
2023-01-26T13:40:50.879Z,89.55
2023-01-26T13:43:27.192Z,92.18
2023-01-26T13:46:04.112Z,87.65
2023-01-26T13:48:41.501Z,89.25
2023-01-26T13:51:07.539Z,94.85
2023-01-26T13:53:38.290Z,78.45
2023-01-26T13:56:05.688Z,83.93
2023-01-26T13:58:30.453Z,85.03
2023-01-26T14:01:05.667Z,78.70
2023-01-26T14:03:31.472Z,67.10
2023-01-26T14:05:58.465Z,65.65
2023-01-26T14:08:25.658Z,82.90
2023-01-26T14:10:54.614Z,58.50
2023-01-26T14:13:25.384Z,72.78
2023-01-26T14:15:59.585Z,86.20
2023-01-26T14:18:31.824Z,86.10
2023-01-26T14:21:01.175Z,67.05
2023-01-26T14:23:30.181Z,81.72
2023-01-26T14:26:02.374Z,72.80
2023-01-26T14:28:31.398Z,76.93
2023-01-26T14:31:02.693Z,71.95
2023-01-26T14:33:28.576Z,79.30
2023-01-26T14:36:04.529Z,73.00
2023-01-26T14:38:33.040Z,65.82
2023-01-26T14:41:01.100Z,78.55
2023-01-26T14:43:27.317Z,71.22
2023-01-26T14:45:56.617Z,61.95
2023-01-26T14:48:23.913Z,73.50
2023-01-26T14:50:49.134Z,72.10
2023-01-26T14:53:19.369Z,75.38
2023-01-26T14:55:45.715Z,56.17
2023-01-26T14:58:21.363Z,84.88
2023-01-26T15:00:51.014Z,77.78
2023-01-26T15:03:23.801Z,76.65
2023-01-26T15:05:48.324Z,84.55
2023-01-26T15:08:23.595Z,79.72
2023-01-26T15:11:16.479Z,70.75
2023-01-26T15:13:43.329Z,71.05
2023-01-26T15:16:15.742Z,78.40
2023-01-26T15:18:40.464Z,54.05
2023-01-26T15:21:14.568Z,68.30
2023-01-26T15:23:42.790Z,79.55
2023-01-26T15:26:09.278Z,71.63
2023-01-26T15:28:34.297Z,57.08
2023-01-26T15:31:00.980Z,77.90
2023-01-26T15:33:50.887Z,93.80
2023-01-26T15:36:34.262Z,114.05
2023-01-26T15:39:12.406Z,68.63
2023-01-26T15:41:37.244Z,110.43
2023-01-26T15:44:01.634Z,103.35
2023-01-26T15:46:28.165Z,107.32
2023-01-26T15:48:53.672Z,118.05
2023-01-26T15:51:18.357Z,96.63
2023-01-26T15:53:43.181Z,109.72
2023-01-26T15:56:14.331Z,96.10
2023-01-26T16:01:03.583Z,98.90
2023-01-26T16:03:29.909Z,96.43
2023-01-26T16:05:54.675Z,103.57
2023-01-26T16:08:20.121Z,93.53
2023-01-26T16:10:45.295Z,114.50
2023-01-26T16:13:11.367Z,89.65
2023-01-26T16:15:42.894Z,93.45
2023-01-26T16:18:07.875Z,105.25
2023-01-26T16:20:34.448Z,79.72
2023-01-26T16:22:59.384Z,85.55
2023-01-26T16:25:28.972Z,78.40
2023-01-26T16:27:53.860Z,109.68
2023-01-26T16:30:19.318Z,109.00
2023-01-26T16:32:45.746Z,83.68
2023-01-26T16:35:13.737Z,99.88
2023-01-26T16:37:42.733Z,100.38
2023-01-26T16:40:09.012Z,90.65
2023-01-26T16:42:34.977Z,94.75
2023-01-26T16:44:59.682Z,118.90
2023-01-26T16:47:24.571Z,113.90
2023-01-26T16:49:49.194Z,113.65
2023-01-26T16:52:13.911Z,67.78
2023-01-26T16:54:40.016Z,118.30
2023-01-26T16:57:04.749Z,124.10
2023-01-26T16:59:29.906Z,128.75
2023-01-26T17:01:54.749Z,110.28
2023-01-26T17:04:19.364Z,127.30
2023-01-26T17:06:44.032Z,110.47
2023-01-26T17:09:08.679Z,108.78
2023-01-26T17:11:35.258Z,89.47
2023-01-26T17:14:00.471Z,127.47
2023-01-26T17:16:27.221Z,127.70
2023-01-26T17:18:51.896Z,128.60
2023-01-26T17:21:18.129Z,107.65
2023-01-26T17:23:44.552Z,106.30
2023-01-26T17:26:10.603Z,117.72
2023-01-26T17:28:36.854Z,116.82
2023-01-26T17:31:01.711Z,103.07
2023-01-26T17:33:26.409Z,133.23
2023-01-26T17:35:51.193Z,103.57
2023-01-26T17:38:15.854Z,127.50
2023-01-26T17:40:40.514Z,122.10
2023-01-26T17:43:05.174Z,100.10
2023-01-26T17:45:31.788Z,111.07
2023-01-26T17:47:56.763Z,108.32
2023-01-26T17:50:22.188Z,81.90
2023-01-26T17:52:46.757Z,111.25
2023-01-26T17:55:11.725Z,128.90
2023-01-26T17:57:37.137Z,114.82
2023-01-26T18:00:01.747Z,108.45
2023-01-26T18:02:29.114Z,122.43
2023-01-26T18:04:54.862Z,96.28
2023-01-26T18:07:20.120Z,91.85
2023-01-26T18:09:44.714Z,97.10
2023-01-26T18:12:09.523Z,126.28
2023-01-26T18:14:34.253Z,106.38
2023-01-26T18:16:59.122Z,120.40
2023-01-26T18:19:25.430Z,121.50
2023-01-26T18:21:51.516Z,120.03
2023-01-26T18:24:17.716Z,108.82
2023-01-26T18:26:42.873Z,98.80
2023-01-26T18:29:09.072Z,117.43
2023-01-26T18:31:36.211Z,90.82
2023-01-26T18:34:02.517Z,82.80
2023-01-26T18:36:29.450Z,101.90
2023-01-26T18:38:55.722Z,121.55
2023-01-26T18:41:43.995Z,108.68
2023-01-26T18:44:10.292Z,119.43
2023-01-26T18:46:35.294Z,113.03
2023-01-26T18:49:01.194Z,104.88
2023-01-26T18:51:27.571Z,69.10
2023-01-26T18:53:52.686Z,102.80
2023-01-26T18:56:18.138Z,87.55
2023-01-26T18:58:43.513Z,117.45
2023-01-26T19:01:10.759Z,107.45
2023-01-26T19:03:35.522Z,104.97
2023-01-26T19:06:03.684Z,71.28
2023-01-26T19:08:29.974Z,89.75
2023-01-26T19:10:54.655Z,109.53
2023-01-26T19:13:19.303Z,110.97
2023-01-26T19:15:46.833Z,70.32
2023-01-26T19:18:11.288Z,96.50
2023-01-26T19:20:35.851Z,101.50
2023-01-26T19:23:01.859Z,103.07
2023-01-26T19:25:28.199Z,101.45
2023-01-26T19:27:52.895Z,112.70
2023-01-26T19:30:18.863Z,101.53
2023-01-26T19:33:04.792Z,84.65
2023-01-26T19:35:29.545Z,103.03
2023-01-26T19:37:54.155Z,93.32
2023-01-26T19:40:19.153Z,70.03
2023-01-26T19:42:45.194Z,104.38
2023-01-26T19:45:11.392Z,106.93
2023-01-26T19:47:37.006Z,90.65
2023-01-26T19:50:01.971Z,72.10
2023-01-26T19:52:29.594Z,89.47
2023-01-26T19:54:54.329Z,111.20
2023-01-26T19:57:19.082Z,78.43
2023-01-26T19:59:45.699Z,80.07
2023-01-26T20:02:11.446Z,67.55
2023-01-26T20:04:36.287Z,101.07
2023-01-26T20:07:05.316Z,86.05
2023-01-26T20:09:34.673Z,97.45
2023-01-26T20:11:59.289Z,96.15
2023-01-26T20:14:23.862Z,84.93
2023-01-26T20:16:50.066Z,91.65
2023-01-26T20:19:15.142Z,95.28
2023-01-26T20:21:40.563Z,74.00
2023-01-26T20:24:06.395Z,74.82
2023-01-26T20:26:31.854Z,83.50
2023-01-26T20:28:58.485Z,100.22
2023-01-26T20:31:24.802Z,87.32
2023-01-26T20:33:53.531Z,86.85
2023-01-26T20:36:21.162Z,91.50
2023-01-26T20:38:47.508Z,69.95
2023-01-26T20:41:14.227Z,64.88
2023-01-26T20:43:49.481Z,79.22
2023-01-26T20:46:22.047Z,75.70
2023-01-26T20:48:47.084Z,69.50
2023-01-26T20:51:16.374Z,60.83
2023-01-26T20:53:41.976Z,78.35
2023-01-26T20:56:09.665Z,63.03
2023-01-26T20:58:34.320Z,68.28
2023-01-26T21:01:06.554Z,65.07
2023-01-26T21:03:31.127Z,72.57
2023-01-26T21:05:55.727Z,63.58
2023-01-26T21:08:21.860Z,81.47
2023-01-26T21:10:47.940Z,71.97
2023-01-26T21:13:12.731Z,76.22
2023-01-26T21:15:37.229Z,83.05
2023-01-26T21:18:02.150Z,72.63
2023-01-26T21:20:27.167Z,65.05
2023-01-26T21:22:52.625Z,67.32
2023-01-26T21:25:19.279Z,67.15
2023-01-26T21:27:43.913Z,53.58
2023-01-26T21:30:11.832Z,75.68
2023-01-26T21:32:39.994Z,78.70
2023-01-26T21:35:04.616Z,68.72
2023-01-26T21:37:29.476Z,78.05
2023-01-26T21:39:54.078Z,72.22
2023-01-26T21:42:20.619Z,79.97
2023-01-26T21:45:02.506Z,78.28
2023-01-26T21:47:28.234Z,97.25
2023-01-26T21:49:54.014Z,97.88
2023-01-26T21:52:36.036Z,84.88
2023-01-26T21:55:00.977Z,89.43
2023-01-26T21:57:46.317Z,84.68
2023-01-26T22:00:12.319Z,88.45
2023-01-26T22:02:37.078Z,68.50
2023-01-26T22:05:01.617Z,71.18
2023-01-26T22:07:28.244Z,71.30
2023-01-26T22:09:52.676Z,76.30
2023-01-26T22:12:17.393Z,88.78
2023-01-26T22:14:43.730Z,89.95
2023-01-26T22:17:08.309Z,84.80
2023-01-26T22:19:33.298Z,70.72
2023-01-26T22:21:57.898Z,70.15
2023-01-26T22:24:22.540Z,76.22
2023-01-26T22:26:47.875Z,90.93
2023-01-26T22:29:13.590Z,87.72
2023-01-26T22:31:39.690Z,80.07
2023-01-26T22:34:05.506Z,79.85
2023-01-26T22:36:30.661Z,79.10
2023-01-26T22:38:55.325Z,85.30
2023-01-26T22:41:21.659Z,58.03
2023-01-26T22:43:46.150Z,81.32
2023-01-26T22:46:12.778Z,82.43
2023-01-26T22:48:39.278Z,62.35
2023-01-26T22:51:08.956Z,58.80
2023-01-26T22:53:33.603Z,66.07
2023-01-26T22:55:58.089Z,71.90
2023-01-26T22:58:22.797Z,90.93
2023-01-26T23:00:47.798Z,63.17
2023-01-26T23:03:12.520Z,67.22
2023-01-26T23:05:38.913Z,85.03
2023-01-26T23:08:03.793Z,71.45
2023-01-26T23:10:29.031Z,62.13
2023-01-26T23:12:53.726Z,55.10
2023-01-26T23:15:18.607Z,84.82
2023-01-26T23:17:43.575Z,84.03
2023-01-26T23:20:08.984Z,76.82
2023-01-26T23:22:35.146Z,76.63
2023-01-26T23:25:17.330Z,85.90
2023-01-26T23:27:42.011Z,62.72
2023-01-26T23:30:07.579Z,85.35
2023-01-26T23:32:32.281Z,72.43
2023-01-26T23:34:56.984Z,78.45
2023-01-26T23:37:21.574Z,74.38
2023-01-26T23:39:47.519Z,70.40
2023-01-26T23:42:14.858Z,70.70
2023-01-26T23:44:42.816Z,72.13
2023-01-26T23:47:07.701Z,81.55
2023-01-26T23:49:32.971Z,69.10
2023-01-26T23:51:57.648Z,58.08
2023-01-26T23:54:22.246Z,74.10
2023-01-26T23:56:48.399Z,78.28
2023-01-26T23:59:13.003Z,104.07
